createdAt,value
2023-04-05T00:01:53.534Z,85.05
2023-04-05T00:06:57.409Z,83.54
2023-04-05T00:11:59.339Z,81.88
2023-04-05T00:17:01.312Z,82.58
2023-04-05T00:22:03.673Z,80.34
2023-04-05T00:27:06.063Z,79.43
2023-04-05T00:32:08.155Z,80.45
2023-04-05T00:37:11.958Z,79.13
2023-04-05T00:42:14.876Z,77.65
2023-04-05T00:47:17.642Z,77.02
2023-04-05T00:52:19.883Z,77.97
2023-04-05T00:57:21.873Z,81.26
2023-04-05T01:02:39.469Z,82.33
2023-04-05T01:07:54.116Z,83.15
2023-04-05T01:12:56.205Z,82.00
2023-04-05T01:18:02.058Z,79.48
2023-04-05T01:23:38.556Z,77.15
2023-04-05T01:28:52.478Z,76.52
2023-04-05T01:34:32.101Z,79.67
2023-04-05T01:39:36.129Z,77.27
2023-04-05T01:44:40.800Z,76.56
2023-04-05T01:49:42.847Z,76.83
2023-04-05T01:54:45.337Z,74.06
2023-04-05T01:59:47.464Z,73.86
2023-04-05T02:04:49.371Z,74.14
2023-04-05T02:09:51.261Z,75.65
2023-04-05T02:14:53.516Z,75.53
2023-04-05T02:20:02.239Z,76.85
2023-04-05T02:25:05.429Z,75.67
2023-04-05T02:30:08.191Z,74.95
2023-04-05T02:35:10.855Z,74.98
2023-04-05T02:40:15.398Z,74.71
2023-04-05T02:45:17.337Z,75.17
2023-04-05T02:50:20.674Z,77.70
2023-04-05T02:55:23.005Z,74.29
2023-04-05T03:00:27.870Z,73.68
2023-04-05T03:05:30.637Z,74.89
2023-04-05T03:10:36.107Z,76.48
2023-04-05T03:15:47.457Z,79.38
2023-04-05T03:20:56.846Z,79.47
2023-04-05T03:26:01.559Z,76.76
2023-04-05T03:31:06.046Z,75.94
2023-04-05T03:36:09.193Z,74.42
2023-04-05T03:41:12.951Z,75.68
2023-04-05T03:46:15.228Z,80.10
2023-04-05T03:51:19.063Z,81.68
2023-04-05T03:56:25.838Z,80.24
2023-04-05T04:01:28.095Z,78.54
2023-04-05T04:06:31.066Z,80.15
2023-04-05T04:11:33.195Z,80.63
2023-04-05T04:16:38.364Z,80.01
2023-04-05T04:21:51.909Z,76.62
2023-04-05T04:26:59.899Z,74.84
2023-04-05T04:32:26.735Z,75.54
2023-04-05T04:37:55.246Z,75.99
2023-04-05T04:43:27.384Z,78.55
2023-04-05T04:48:52.253Z,78.76
2023-04-05T04:54:07.737Z,75.55
2023-04-05T04:59:09.782Z,75.07
2023-04-05T05:04:12.415Z,74.62
2023-04-05T05:09:16.226Z,75.70
2023-04-05T05:14:25.407Z,76.93
2023-04-05T05:19:28.994Z,78.99
2023-04-05T05:24:31.088Z,80.35
2023-04-05T05:29:33.172Z,81.96
2023-04-05T05:34:35.724Z,82.07
2023-04-05T05:39:37.756Z,82.87
2023-04-05T05:44:40.023Z,83.40
2023-04-05T05:49:42.358Z,83.47
2023-04-05T05:54:44.609Z,83.85
2023-04-05T05:59:47.361Z,84.15
2023-04-05T06:04:49.877Z,83.58
2023-04-05T06:09:51.855Z,82.76
2023-04-05T06:14:54.962Z,81.69
2023-04-05T06:19:57.633Z,80.99
2023-04-05T06:25:00.392Z,80.42
2023-04-05T06:30:03.341Z,80.49
2023-04-05T06:35:06.518Z,79.83
2023-04-05T06:40:09.090Z,79.22
2023-04-05T06:45:12.067Z,79.29
2023-04-05T06:50:14.002Z,78.24
2023-04-05T06:55:16.462Z,78.86
2023-04-05T07:00:19.859Z,78.76
2023-04-05T07:05:22.100Z,78.07
2023-04-05T07:10:24.505Z,79.27
2023-04-05T07:15:30.410Z,76.22
2023-04-05T07:20:33.218Z,74.50
2023-04-05T07:25:39.866Z,75.18
2023-04-05T07:30:52.559Z,71.81
2023-04-05T07:37:12.369Z,73.36
2023-04-05T07:42:23.407Z,70.70
2023-04-05T07:47:53.832Z,71.28
2023-04-05T07:53:09.468Z,68.65
2023-04-05T07:58:23.306Z,63.42
2023-04-05T08:03:26.619Z,62.92
2023-04-05T08:08:29.570Z,62.93
2023-04-05T08:13:50.472Z,61.48
2023-04-05T08:18:57.771Z,55.16
2023-04-05T08:24:10.306Z,53.94
2023-04-05T08:29:13.962Z,53.83
2023-04-05T08:34:16.441Z,51.58
2023-04-05T08:39:19.393Z,52.31
2023-04-05T08:44:23.171Z,52.12
2023-04-05T08:49:26.007Z,51.93
2023-04-05T08:54:28.036Z,51.48
2023-04-05T08:59:33.027Z,50.30
2023-04-05T09:04:40.332Z,50.10
2023-04-05T09:09:46.864Z,50.50
2023-04-05T09:14:50.638Z,49.39
2023-04-05T09:20:23.127Z,49.35
2023-04-05T09:25:38.887Z,49.96
2023-04-05T09:30:46.622Z,47.93
2023-04-05T09:35:51.403Z,48.72
2023-04-05T09:40:56.887Z,49.28
2023-04-05T09:46:07.772Z,48.18
2023-04-05T09:51:12.910Z,47.29
2023-04-05T09:56:15.658Z,47.12
2023-04-05T10:01:19.007Z,46.56
2023-04-05T10:06:21.683Z,46.91
2023-04-05T10:11:24.471Z,47.75
2023-04-05T10:16:29.743Z,46.52
2023-04-05T10:21:36.341Z,44.56
2023-04-05T10:26:52.983Z,45.08
2023-04-05T10:32:03.245Z,45.58
2023-04-05T10:37:07.216Z,45.43
2023-04-05T10:42:28.334Z,46.64
2023-04-05T10:47:39.133Z,45.45
2023-04-05T10:52:42.856Z,44.33
2023-04-05T10:57:46.432Z,45.66
2023-04-05T11:02:49.309Z,46.14
2023-04-05T11:07:52.695Z,45.39
2023-04-05T11:12:57.976Z,45.08
2023-04-05T11:18:20.860Z,44.07
2023-04-05T11:23:29.310Z,43.89
2023-04-05T11:28:40.606Z,48.39
2023-04-05T11:33:55.353Z,45.96
2023-04-05T11:39:18.708Z,45.39
2023-04-05T11:44:22.288Z,44.10
2023-04-05T11:49:33.033Z,44.18
2023-04-05T11:54:35.876Z,46.72
2023-04-05T11:59:39.098Z,44.25
2023-04-05T12:04:41.480Z,44.17
2023-04-05T12:10:13.978Z,45.79
2023-04-05T12:15:20.591Z,44.01
2023-04-05T12:20:25.022Z,45.51
2023-04-05T12:25:28.779Z,46.46
2023-04-05T12:30:37.130Z,45.80
2023-04-05T12:35:42.518Z,44.68
2023-04-05T12:40:47.013Z,43.59
2023-04-05T12:45:50.800Z,41.67
2023-04-05T12:50:55.163Z,43.01
2023-04-05T12:55:58.822Z,42.23
2023-04-05T13:01:04.351Z,42.86
2023-04-05T13:06:07.244Z,43.02
2023-04-05T13:11:09.262Z,43.19
2023-04-05T13:16:11.315Z,44.04
2023-04-05T13:21:14.839Z,44.06
2023-04-05T13:26:17.522Z,42.77
2023-04-05T13:31:19.995Z,44.07
2023-04-05T13:36:22.759Z,44.93
2023-04-05T13:41:26.089Z,44.04
2023-04-05T13:47:21.711Z,43.06
2023-04-05T13:53:19.679Z,45.14
2023-04-05T13:59:11.149Z,46.04
2023-04-05T14:04:54.379Z,47.79
2023-04-05T14:10:27.128Z,45.63
2023-04-05T14:15:40.000Z,44.60
2023-04-05T14:20:48.876Z,43.05
2023-04-05T14:25:50.827Z,44.60
2023-04-05T14:30:59.733Z,44.84
2023-04-05T14:36:02.886Z,44.87
2023-04-05T14:41:08.538Z,45.65
2023-04-05T14:46:31.078Z,44.59
2023-04-05T14:51:46.065Z,45.63
2023-04-05T14:56:49.121Z,45.99
2023-04-05T15:01:54.443Z,45.31
2023-04-05T15:06:57.010Z,45.59
2023-04-05T15:12:22.459Z,44.26
2023-04-05T15:17:40.528Z,45.13
2023-04-05T15:22:43.686Z,43.79
2023-04-05T15:28:07.024Z,43.80
2023-04-05T15:33:09.424Z,45.03
2023-04-05T15:38:35.428Z,46.32
2023-04-05T15:43:39.308Z,45.72
2023-04-05T15:48:44.830Z,45.84
2023-04-05T15:53:49.951Z,45.41
2023-04-05T15:59:13.422Z,45.07
2023-04-05T16:04:16.191Z,46.14
2023-04-05T16:09:19.068Z,46.20
2023-04-05T16:14:44.895Z,47.17
2023-04-05T16:19:48.294Z,46.90
2023-04-05T16:24:54.034Z,47.63
2023-04-05T16:29:58.719Z,48.08
2023-04-05T16:35:01.698Z,48.40
2023-04-05T16:40:25.085Z,50.53
2023-04-05T16:45:33.763Z,49.65
2023-04-05T16:50:39.482Z,52.97
2023-04-05T16:55:51.770Z,53.06
2023-04-05T17:01:07.858Z,54.34
2023-04-05T17:06:28.454Z,52.64
2023-04-05T17:11:31.435Z,51.57
2023-04-05T17:16:37.022Z,53.90
2023-04-05T17:21:45.519Z,55.75
2023-04-05T17:26:56.713Z,56.63
2023-04-05T17:31:59.256Z,56.98
2023-04-05T17:37:01.865Z,57.78
2023-04-05T17:42:09.967Z,58.09
2023-04-05T17:47:15.492Z,58.53
2023-04-05T17:52:30.892Z,58.01
2023-04-05T17:57:48.694Z,59.33
2023-04-05T18:03:13.618Z,60.17
2023-04-05T18:08:18.860Z,61.05
2023-04-05T18:13:21.475Z,60.69
2023-04-05T18:18:24.966Z,61.01
2023-04-05T18:23:27.183Z,60.50
2023-04-05T18:28:32.471Z,60.19
2023-04-05T18:33:34.621Z,60.96
2023-04-05T18:38:39.436Z,63.19
2023-04-05T18:43:42.058Z,64.25
2023-04-05T18:48:44.718Z,63.81
2023-04-05T18:53:46.741Z,63.43
2023-04-05T18:58:50.444Z,63.40
2023-04-05T19:03:52.477Z,62.81
2023-04-05T19:08:54.994Z,62.06
2023-04-05T19:13:59.439Z,61.54
2023-04-05T19:19:06.357Z,57.81
2023-04-05T19:24:13.970Z,59.56
2023-04-05T19:29:17.067Z,60.68
2023-04-05T19:34:19.414Z,61.03
2023-04-05T19:39:25.615Z,61.47
2023-04-05T19:44:54.888Z,63.21
2023-04-05T19:50:00.589Z,62.85
2023-04-05T19:55:27.613Z,63.07
2023-04-05T20:00:39.333Z,62.67
2023-04-05T20:05:47.065Z,62.69
2023-04-05T20:10:52.189Z,62.62
2023-04-05T20:15:55.522Z,61.83
2023-04-05T20:20:57.843Z,60.49
2023-04-05T20:26:00.369Z,59.14
2023-04-05T20:31:04.810Z,58.73
2023-04-05T20:36:13.003Z,59.02
2023-04-05T20:41:17.373Z,59.46
2023-04-05T20:46:22.788Z,59.27
2023-04-05T20:51:26.074Z,59.02
2023-04-05T20:56:28.373Z,60.84
2023-04-05T21:01:42.819Z,61.27
2023-04-05T21:06:45.069Z,61.74
2023-04-05T21:11:47.920Z,61.37
2023-04-05T21:16:50.220Z,60.66
2023-04-05T21:21:52.860Z,60.99
2023-04-05T21:26:56.860Z,61.39
2023-04-05T21:32:04.401Z,61.70
2023-04-05T21:37:10.278Z,62.03
2023-04-05T21:42:13.728Z,62.11
2023-04-05T21:47:35.755Z,64.32
2023-04-05T21:52:42.798Z,67.01
2023-04-05T21:57:45.724Z,67.90
2023-04-05T22:02:48.389Z,67.85
2023-04-05T22:07:53.705Z,68.17
2023-04-05T22:12:56.606Z,67.50
2023-04-05T22:17:59.478Z,66.99
2023-04-05T22:23:02.209Z,67.28
2023-04-05T22:28:05.083Z,67.15
2023-04-05T22:33:08.531Z,66.26
2023-04-05T22:38:11.200Z,65.52
2023-04-05T22:43:14.502Z,65.82
2023-04-05T22:48:16.970Z,63.51
2023-04-05T22:53:19.768Z,65.62
2023-04-05T22:58:32.731Z,65.39
2023-04-05T23:03:41.272Z,65.33
2023-04-05T23:08:48.686Z,66.69
2023-04-05T23:14:18.138Z,66.77
2023-04-05T23:19:22.332Z,65.00
2023-04-05T23:24:25.074Z,65.68
2023-04-05T23:29:30.481Z,66.63
2023-04-05T23:34:32.919Z,68.24
2023-04-05T23:39:35.394Z,68.88
2023-04-05T23:44:39.372Z,67.65
2023-04-05T23:49:43.886Z,65.90
2023-04-05T23:54:47.453Z,65.66
2023-04-05T23:59:52.008Z,67.10
